首页
METAR-TAF:

METAR-TAF

机场 :

哥印拜陀, 印度

纬度: 11-01-36N, 经度: 077-02-30E, 海拔: 400米

当前天气观测

该预报发布于34分钟前的17:00 UTC
风速13节,风向西南
温度 27°C
湿度 79%
气压 1011 hPa
能見度: 5000
散云层高于1200英尺
散云层高于8000英尺
轻雾,

METAR: VOCB 181700Z 22013KT 5000 BR SCT012 SCT080 27/23 Q1011 NOSIG

时间: 23:04 (17:34 UTC)

预报

该预报发布于6小时和34分钟前的11:00 UTC
预报有效从18日的 12点(UTC)到 19日的 18点(UTC)
风速15节,风向西南
能見度: 5000
少量云层高于1200英尺
散云层高于10000英尺
短暂存在
从 18日的 12点(UTC)到 18日的 18点(UTC)
能見度: 4000
散云层高于1200英尺
少量云层高于2000英尺, 塔状积云.
多云层高于8000英尺
成为
从 18日的 21点(UTC)到 18日的 22点(UTC)
风速5节,风向西南
成为
从 19日的 03点(UTC)到 19日的 04点(UTC)
风速15节,风向西南
能見度: 6000
成为
从 19日的 12点(UTC)到 11日的 91点(UTC)
能見度: 5000
短暂存在
从 19日的 09点(UTC)到 19日的 12点(UTC)
散云层高于1200英尺

TAF: VOCB 181100Z 1812/1918 23015KT 5000 HZ/BR FEW012 SCT100 TEMPO 1812/1818 4000 -TSRA/RA SCT012 FEW020TCU BKN080 BECMG 1821/1822 23005KT BECMG 1903/1904 23015KT 6000 BECMG 1912/11913 5000 HZ/BR TEMPO 1909/1912 SCT012 FEW020TCU/CB

超过4000个机场的气象观测和天气预报(METAR&TAF报告)。

可查询的气象台以黄色和红色小点在地图上表示。

将鼠标移到小点上方,可查看气象台名称。

然后点击查看天气观测和预报。

如需切换地图:点击带黑十字的绿色按钮放大地图;点击带横线的绿色按钮缩小地图;或者点击绿色箭头查看邻近地区的地图。


METAR-TAF: